createdAt,value
2023-05-03T00:01:27.573Z,6.42
2023-05-03T00:03:55.756Z,6.43
2023-05-03T00:06:24.157Z,6.49
2023-05-03T00:08:54.093Z,6.32
2023-05-03T00:11:22.346Z,6.31
2023-05-03T00:13:50.987Z,6.18
2023-05-03T00:16:19.809Z,5.98
2023-05-03T00:18:49.234Z,5.81
2023-05-03T00:21:17.896Z,5.68
2023-05-03T00:23:46.199Z,5.53
2023-05-03T00:26:15.995Z,5.35
2023-05-03T00:28:44.110Z,5.20
2023-05-03T00:31:13.873Z,5.15
2023-05-03T00:33:42.782Z,5.10
2023-05-03T00:36:11.536Z,5.10
2023-05-03T00:38:41.485Z,4.95
2023-05-03T00:41:11.609Z,4.89
2023-05-03T00:43:41.478Z,4.89
2023-05-03T00:46:17.321Z,4.83
2023-05-03T00:48:47.426Z,4.89
2023-05-03T00:51:16.653Z,4.82
2023-05-03T00:53:45.159Z,4.69
2023-05-03T00:56:18.299Z,4.53
2023-05-03T00:58:47.916Z,4.42
2023-05-03T01:01:16.753Z,4.35
2023-05-03T01:03:46.647Z,4.34
2023-05-03T01:06:22.876Z,4.26
2023-05-03T01:09:00.972Z,4.10
2023-05-03T01:11:38.998Z,4.13
2023-05-03T01:14:22.276Z,4.15
2023-05-03T01:16:55.546Z,3.98
2023-05-03T01:19:30.953Z,3.84
2023-05-03T01:22:08.319Z,3.73
2023-05-03T01:24:38.772Z,3.68
2023-05-03T01:27:09.512Z,3.56
2023-05-03T01:29:37.704Z,3.64
2023-05-03T01:32:10.760Z,3.55
2023-05-03T01:34:44.492Z,3.16
2023-05-03T01:37:15.902Z,2.89
2023-05-03T01:39:50.430Z,2.74
2023-05-03T01:42:21.954Z,2.81
2023-05-03T01:44:51.516Z,2.85
2023-05-03T01:47:19.862Z,2.84
2023-05-03T01:49:48.373Z,2.65
2023-05-03T01:52:16.313Z,2.55
2023-05-03T01:54:45.808Z,2.46
2023-05-03T01:57:13.725Z,2.48
2023-05-03T01:59:44.612Z,2.43
2023-05-03T02:02:12.949Z,2.51
2023-05-03T02:04:42.817Z,2.64
2023-05-03T02:07:11.405Z,2.57
2023-05-03T02:09:40.068Z,2.46
2023-05-03T02:12:10.009Z,2.25
2023-05-03T02:14:37.979Z,2.16
2023-05-03T02:17:08.794Z,2.13
2023-05-03T02:19:37.164Z,2.07
2023-05-03T02:22:05.593Z,2.19
2023-05-03T02:24:36.346Z,2.13
2023-05-03T02:27:05.139Z,2.05
2023-05-03T02:29:33.372Z,2.16
2023-05-03T02:32:05.529Z,2.26
2023-05-03T02:34:35.744Z,2.31
2023-05-03T02:37:04.038Z,2.33
2023-05-03T02:39:33.012Z,2.45
2023-05-03T02:42:01.071Z,2.71
2023-05-03T02:44:30.394Z,2.81
2023-05-03T02:47:00.284Z,2.66
2023-05-03T02:49:29.119Z,2.62
2023-05-03T02:51:58.800Z,2.57
2023-05-03T02:54:27.160Z,2.52
2023-05-03T02:56:55.917Z,2.34
2023-05-03T02:59:24.025Z,2.41
2023-05-03T03:01:52.681Z,2.51
2023-05-03T03:04:21.141Z,2.58
2023-05-03T03:06:49.312Z,2.68
2023-05-03T03:09:19.592Z,2.68
2023-05-03T03:11:48.066Z,2.71
2023-05-03T03:14:17.997Z,2.85
2023-05-03T03:16:46.481Z,2.92
2023-05-03T03:19:15.427Z,3.02
2023-05-03T03:21:43.818Z,3.09
2023-05-03T03:24:12.286Z,3.00
2023-05-03T03:26:43.588Z,3.04
2023-05-03T03:29:12.230Z,3.02
2023-05-03T03:31:44.318Z,3.15
2023-05-03T03:34:13.527Z,3.33
2023-05-03T03:36:42.989Z,3.47
2023-05-03T03:39:12.011Z,3.36
2023-05-03T03:41:45.497Z,3.36
2023-05-03T03:44:13.892Z,3.53
2023-05-03T03:46:42.639Z,3.65
2023-05-03T03:49:12.037Z,3.66
2023-05-03T03:51:40.558Z,3.65
2023-05-03T03:54:10.249Z,3.73
2023-05-03T03:56:45.312Z,3.71
2023-05-03T03:59:13.659Z,3.71
2023-05-03T04:01:42.598Z,3.81
2023-05-03T04:04:12.848Z,3.95
2023-05-03T04:06:41.931Z,3.90
2023-05-03T04:09:14.162Z,3.99
2023-05-03T04:11:42.818Z,4.04
2023-05-03T04:14:12.471Z,4.11
2023-05-03T04:16:43.503Z,4.15
2023-05-03T04:19:13.040Z,4.24
2023-05-03T04:21:43.473Z,4.34
2023-05-03T04:24:17.495Z,4.40
2023-05-03T04:26:47.453Z,4.40
2023-05-03T04:29:23.760Z,4.46
2023-05-03T04:31:52.177Z,4.49
2023-05-03T04:34:21.049Z,4.60
2023-05-03T04:36:53.156Z,4.69
2023-05-03T04:39:22.428Z,4.84
2023-05-03T04:41:50.604Z,5.09
2023-05-03T04:44:19.023Z,5.06
2023-05-03T04:46:51.654Z,5.07
2023-05-03T04:49:20.576Z,5.07
2023-05-03T04:51:48.902Z,5.09
2023-05-03T04:54:19.845Z,5.19
2023-05-03T04:56:49.800Z,5.25
2023-05-03T04:59:20.175Z,5.44
2023-05-03T05:01:49.299Z,5.52
2023-05-03T05:04:19.833Z,5.69
2023-05-03T05:06:54.799Z,5.55
2023-05-03T05:09:29.100Z,5.62
2023-05-03T05:11:59.866Z,5.77
2023-05-03T05:14:34.168Z,5.88
2023-05-03T05:17:03.222Z,5.93
2023-05-03T05:19:39.377Z,6.15
2023-05-03T05:22:08.179Z,6.10
2023-05-03T05:24:45.581Z,6.49
2023-05-03T05:27:17.369Z,6.44
2023-05-03T05:29:45.621Z,6.61
2023-05-03T05:32:14.100Z,6.70
2023-05-03T05:34:45.822Z,6.29
2023-05-03T05:37:20.248Z,6.30
2023-05-03T05:39:49.726Z,6.40
2023-05-03T05:42:20.050Z,6.98
2023-05-03T05:44:48.771Z,6.94
2023-05-03T05:47:43.939Z,6.70
2023-05-03T05:50:18.239Z,6.72
2023-05-03T05:53:00.583Z,6.71
2023-05-03T05:55:32.119Z,7.03
2023-05-03T05:58:02.362Z,7.00
2023-05-03T06:00:39.156Z,7.11
2023-05-03T06:03:07.888Z,7.14
2023-05-03T06:05:38.503Z,7.00
2023-05-03T06:08:07.197Z,7.04
2023-05-03T06:10:35.583Z,7.06
2023-05-03T06:13:05.107Z,7.18
2023-05-03T06:15:34.641Z,7.50
2023-05-03T06:18:04.823Z,7.66
2023-05-03T06:20:34.557Z,7.52
2023-05-03T06:23:06.240Z,7.68
2023-05-03T06:25:35.792Z,8.19
2023-05-03T06:28:06.343Z,8.19
2023-05-03T06:30:37.016Z,7.96
2023-05-03T06:33:15.198Z,8.17
2023-05-03T06:36:12.147Z,8.32
2023-05-03T06:38:42.284Z,8.11
2023-05-03T06:41:11.048Z,8.27
2023-05-03T06:43:39.599Z,8.45
2023-05-03T06:46:08.365Z,8.51
2023-05-03T06:48:36.790Z,8.88
2023-05-03T06:51:07.016Z,9.32
2023-05-03T06:53:35.522Z,9.32
2023-05-03T06:56:06.172Z,10.20
2023-05-03T06:58:35.126Z,10.97
2023-05-03T07:01:03.669Z,10.96
2023-05-03T07:03:32.664Z,13.23
2023-05-03T07:06:04.709Z,14.64
2023-05-03T07:08:32.990Z,14.98
2023-05-03T07:11:05.654Z,16.58
2023-05-03T07:13:34.637Z,17.75
2023-05-03T07:16:03.830Z,17.65
2023-05-03T07:18:32.048Z,18.93
2023-05-03T07:21:01.831Z,17.13
2023-05-03T07:23:30.418Z,17.82
2023-05-03T07:26:00.276Z,17.72
2023-05-03T07:28:30.556Z,17.00
2023-05-03T07:30:59.643Z,17.26
2023-05-03T07:33:28.440Z,19.77
2023-05-03T07:35:56.755Z,22.53
2023-05-03T07:38:25.070Z,21.12
2023-05-03T07:40:53.396Z,21.49
2023-05-03T07:43:23.707Z,19.24
2023-05-03T07:45:53.652Z,19.32
2023-05-03T07:48:21.994Z,20.62
2023-05-03T07:50:50.547Z,16.00
2023-05-03T07:53:18.693Z,13.27
2023-05-03T07:55:46.990Z,15.93
2023-05-03T07:58:15.159Z,15.28
2023-05-03T08:00:45.648Z,17.25
2023-05-03T08:03:16.345Z,15.67
2023-05-03T08:06:11.034Z,13.93
2023-05-03T08:08:39.336Z,14.61
2023-05-03T08:11:07.907Z,14.81
2023-05-03T08:13:36.860Z,13.88
2023-05-03T08:16:05.820Z,12.00
2023-05-03T08:18:35.971Z,11.45
2023-05-03T08:21:04.487Z,11.14
2023-05-03T08:23:33.071Z,10.47
2023-05-03T08:26:04.608Z,10.50
2023-05-03T08:28:32.949Z,10.15
2023-05-03T08:31:03.311Z,10.56
2023-05-03T08:33:33.975Z,10.60
2023-05-03T08:36:04.001Z,10.62
2023-05-03T08:38:32.690Z,11.24
2023-05-03T08:41:11.013Z,11.64
2023-05-03T08:43:45.755Z,11.43
2023-05-03T08:46:15.024Z,12.06
2023-05-03T08:48:44.710Z,11.08
2023-05-03T08:51:19.216Z,10.24
2023-05-03T08:53:51.800Z,10.44
2023-05-03T08:56:27.737Z,10.53
2023-05-03T08:58:56.466Z,10.76
2023-05-03T09:01:26.519Z,11.38
2023-05-03T09:03:55.600Z,11.33
2023-05-03T09:06:26.411Z,11.49
2023-05-03T09:08:55.251Z,11.54
2023-05-03T09:11:24.855Z,11.90
2023-05-03T09:13:53.975Z,11.58
2023-05-03T09:16:29.381Z,15.27
2023-05-03T09:18:59.476Z,14.71
2023-05-03T09:21:29.520Z,14.54
2023-05-03T09:23:57.993Z,15.37
2023-05-03T09:26:31.728Z,17.64
2023-05-03T09:29:01.970Z,18.68
2023-05-03T09:31:31.807Z,16.30
2023-05-03T09:34:00.000Z,12.79
2023-05-03T09:36:30.230Z,11.75
2023-05-03T09:38:58.472Z,11.09
2023-05-03T09:41:30.874Z,10.56
2023-05-03T09:44:03.266Z,12.73
2023-05-03T09:46:32.465Z,14.94
2023-05-03T09:49:01.235Z,15.31
2023-05-03T09:51:31.962Z,16.29
2023-05-03T09:54:00.965Z,16.54
2023-05-03T09:56:30.080Z,16.94
2023-05-03T09:58:59.064Z,17.47
2023-05-03T10:01:28.174Z,16.17
2023-05-03T10:04:10.440Z,17.12
2023-05-03T10:06:44.500Z,17.81
2023-05-03T10:09:16.613Z,17.28
2023-05-03T10:11:49.497Z,16.17
2023-05-03T10:14:18.204Z,16.13
2023-05-03T10:16:50.169Z,16.76
2023-05-03T10:19:24.795Z,13.95
2023-05-03T10:22:01.050Z,12.13
2023-05-03T10:24:29.834Z,12.08
2023-05-03T10:26:58.931Z,12.26
2023-05-03T10:29:51.998Z,14.20
2023-05-03T10:32:31.035Z,15.48
2023-05-03T10:35:03.577Z,16.06
2023-05-03T10:37:36.549Z,14.74
2023-05-03T10:40:13.951Z,12.99
2023-05-03T10:42:45.890Z,12.31
2023-05-03T10:45:23.910Z,13.77
2023-05-03T10:48:20.597Z,15.40
2023-05-03T10:50:50.427Z,15.73
2023-05-03T10:53:40.911Z,16.02
2023-05-03T10:56:11.196Z,15.76
2023-05-03T10:58:43.912Z,15.74
2023-05-03T11:01:14.705Z,15.52
2023-05-03T11:03:47.174Z,14.02
2023-05-03T11:06:32.857Z,13.01
2023-05-03T11:09:06.041Z,13.31
2023-05-03T11:11:35.066Z,14.27
2023-05-03T11:14:04.235Z,15.83
2023-05-03T11:16:33.079Z,16.78
2023-05-03T11:19:03.653Z,15.25
2023-05-03T11:21:32.127Z,14.38
2023-05-03T11:24:03.257Z,14.05
2023-05-03T11:26:38.127Z,13.99
2023-05-03T11:29:06.909Z,13.43
2023-05-03T11:31:35.879Z,13.52
2023-05-03T11:34:04.349Z,14.57
2023-05-03T11:36:32.812Z,14.71
2023-05-03T11:39:01.463Z,14.57
2023-05-03T11:41:29.799Z,13.81
2023-05-03T11:44:12.038Z,13.92
2023-05-03T11:46:44.432Z,13.47
2023-05-03T11:49:19.757Z,12.39
2023-05-03T11:51:52.542Z,13.16
2023-05-03T11:54:26.882Z,13.14
2023-05-03T11:56:58.315Z,13.93
2023-05-03T11:59:39.283Z,14.74
2023-05-03T12:02:09.528Z,15.60
2023-05-03T12:04:42.195Z,15.24
2023-05-03T12:07:15.294Z,15.00
2023-05-03T12:09:52.773Z,15.23
2023-05-03T12:12:32.314Z,14.08
2023-05-03T12:15:07.721Z,15.32
2023-05-03T12:17:38.710Z,15.51
2023-05-03T12:22:57.724Z,14.80
2023-05-03T12:25:29.064Z,14.93
2023-05-03T12:30:36.205Z,15.34
2023-05-03T12:33:09.538Z,14.85
2023-05-03T12:35:40.862Z,15.13
2023-05-03T12:38:10.657Z,14.98
2023-05-03T12:40:40.960Z,14.69
2023-05-03T12:43:09.541Z,15.41
2023-05-03T12:45:41.144Z,15.49
2023-05-03T12:48:09.720Z,15.21
2023-05-03T12:50:39.145Z,14.66
2023-05-03T12:53:10.009Z,14.33
2023-05-03T12:55:42.609Z,14.98
2023-05-03T13:01:06.186Z,14.80
2023-05-03T13:03:37.114Z,15.02
2023-05-03T13:06:14.821Z,14.71
2023-05-03T13:08:49.875Z,14.55
2023-05-03T13:11:20.668Z,15.05
2023-05-03T13:13:48.723Z,15.48
2023-05-03T13:16:19.777Z,15.04
2023-05-03T13:18:49.368Z,15.28
2023-05-03T13:21:18.429Z,15.39
2023-05-03T13:23:48.049Z,15.52
2023-05-03T13:26:16.514Z,15.85
2023-05-03T13:28:45.061Z,15.91
2023-05-03T13:31:13.428Z,16.55
2023-05-03T13:33:43.087Z,15.52
2023-05-03T13:36:11.211Z,15.96
2023-05-03T13:38:41.923Z,15.96
2023-05-03T13:41:10.092Z,15.78
2023-05-03T13:43:39.462Z,15.75
2023-05-03T13:46:07.819Z,15.64
2023-05-03T13:48:36.446Z,16.90
2023-05-03T13:51:10.066Z,16.33
2023-05-03T13:53:38.227Z,15.89
2023-05-03T13:56:08.131Z,16.15
2023-05-03T13:58:39.830Z,15.39
2023-05-03T14:01:09.570Z,16.21
2023-05-03T14:03:38.196Z,16.10
2023-05-03T14:06:08.395Z,16.38
2023-05-03T14:08:38.197Z,15.99
2023-05-03T14:11:06.919Z,15.69
2023-05-03T14:13:47.644Z,15.88
2023-05-03T14:18:58.735Z,15.91
2023-05-03T14:21:27.328Z,16.27
2023-05-03T14:23:57.488Z,16.85
2023-05-03T14:26:26.925Z,16.94
2023-05-03T14:28:54.985Z,17.01
2023-05-03T14:31:23.560Z,16.89
2023-05-03T14:33:52.883Z,16.03
2023-05-03T14:36:21.372Z,15.76
2023-05-03T14:38:49.604Z,15.67
2023-05-03T14:41:19.199Z,16.16
2023-05-03T14:43:47.428Z,15.85
2023-05-03T14:46:16.724Z,16.49
2023-05-03T14:48:45.192Z,16.03
2023-05-03T14:51:15.088Z,16.31
2023-05-03T14:53:43.416Z,16.10
2023-05-03T14:56:11.596Z,16.07
2023-05-03T14:58:41.448Z,16.69
2023-05-03T15:01:10.189Z,16.89
2023-05-03T15:03:38.695Z,16.59
2023-05-03T15:06:07.444Z,16.74
2023-05-03T15:08:35.919Z,16.03
2023-05-03T15:11:05.825Z,16.12
2023-05-03T15:13:34.301Z,16.54
2023-05-03T15:16:04.015Z,16.03
2023-05-03T15:18:32.649Z,15.84
2023-05-03T15:21:01.238Z,16.06
2023-05-03T15:23:29.611Z,15.18
2023-05-03T15:25:58.550Z,15.63
2023-05-03T15:28:26.716Z,16.17
2023-05-03T15:30:54.888Z,16.59
2023-05-03T15:33:24.869Z,15.93
2023-05-03T15:35:54.706Z,16.14
2023-05-03T15:38:22.830Z,16.37
2023-05-03T15:40:50.970Z,15.92
2023-05-03T15:43:19.483Z,16.57
2023-05-03T15:45:48.175Z,16.37
2023-05-03T15:48:16.521Z,16.53
2023-05-03T15:50:46.295Z,16.03
2023-05-03T15:53:14.277Z,15.91
2023-05-03T15:55:42.770Z,16.04
2023-05-03T15:58:11.756Z,15.88
2023-05-03T16:00:40.774Z,16.13
2023-05-03T16:03:09.392Z,15.62
2023-05-03T16:05:37.561Z,15.11
2023-05-03T16:08:08.644Z,14.97
2023-05-03T16:10:36.900Z,15.30
2023-05-03T16:13:05.242Z,15.35
2023-05-03T16:15:33.582Z,15.80
2023-05-03T16:18:02.155Z,15.86
2023-05-03T16:20:30.521Z,15.70
2023-05-03T16:22:58.624Z,14.98
2023-05-03T16:25:29.932Z,15.02
2023-05-03T16:27:59.954Z,14.76
2023-05-03T16:30:28.444Z,14.79
2023-05-03T16:32:57.080Z,15.37
2023-05-03T16:35:25.754Z,15.53
2023-05-03T16:37:54.042Z,15.53
2023-05-03T16:40:22.247Z,15.22
2023-05-03T16:42:52.080Z,14.82
2023-05-03T16:45:20.485Z,14.35
2023-05-03T16:47:49.100Z,14.11
2023-05-03T16:50:18.744Z,13.89
2023-05-03T16:52:47.433Z,13.94
2023-05-03T16:55:16.512Z,14.19
2023-05-03T16:57:44.719Z,14.56
2023-05-03T17:00:17.512Z,14.69
2023-05-03T17:02:45.953Z,14.17
2023-05-03T17:05:15.384Z,13.89
2023-05-03T17:07:43.560Z,13.88
2023-05-03T17:10:12.908Z,14.04
2023-05-03T17:12:41.253Z,14.20
2023-05-03T17:15:10.867Z,14.15
2023-05-03T17:17:40.532Z,14.12
2023-05-03T17:20:13.026Z,13.68
2023-05-03T17:22:41.363Z,13.53
2023-05-03T17:25:13.280Z,13.63
2023-05-03T17:27:44.683Z,13.68
2023-05-03T17:30:17.809Z,13.29
2023-05-03T17:32:48.988Z,13.27
2023-05-03T17:35:17.864Z,13.21
2023-05-03T17:37:46.480Z,13.36
2023-05-03T17:40:15.462Z,13.40
2023-05-03T17:42:43.725Z,13.16
2023-05-03T17:45:14.021Z,12.81
2023-05-03T17:47:42.758Z,12.71
2023-05-03T17:50:13.654Z,12.70
2023-05-03T17:52:41.739Z,12.64
2023-05-03T17:55:15.260Z,12.11
2023-05-03T17:57:46.202Z,11.98
2023-05-03T18:00:16.966Z,11.72
2023-05-03T18:02:45.784Z,11.58
2023-05-03T18:05:16.669Z,11.56
2023-05-03T18:07:45.971Z,11.39
2023-05-03T18:10:17.621Z,11.22
2023-05-03T18:12:46.626Z,11.12
2023-05-03T18:15:15.886Z,10.81
2023-05-03T18:17:44.439Z,10.59
2023-05-03T18:20:16.057Z,10.26
2023-05-03T18:22:45.674Z,9.71
2023-05-03T18:25:14.299Z,9.53
2023-05-03T18:27:42.731Z,9.35
2023-05-03T18:30:12.076Z,9.12
2023-05-03T18:32:41.851Z,8.81
2023-05-03T18:35:11.050Z,8.63
2023-05-03T18:37:39.880Z,8.28
2023-05-03T18:40:18.231Z,8.02
2023-05-03T18:42:47.713Z,8.00
2023-05-03T18:45:17.516Z,7.82
2023-05-03T18:47:46.111Z,7.75
2023-05-03T18:50:14.428Z,7.68
2023-05-03T18:52:42.542Z,7.71
2023-05-03T18:55:13.081Z,7.65
2023-05-03T18:57:41.306Z,7.44
2023-05-03T19:00:11.501Z,6.95
2023-05-03T19:02:40.582Z,6.77
2023-05-03T19:05:12.065Z,6.61
2023-05-03T19:07:42.991Z,6.68
2023-05-03T19:10:13.427Z,6.55
2023-05-03T19:12:42.830Z,6.59
2023-05-03T19:15:12.270Z,6.63
2023-05-03T19:17:42.179Z,6.62
2023-05-03T19:20:12.148Z,6.42
2023-05-03T19:22:40.587Z,6.28
2023-05-03T19:25:10.851Z,5.96
2023-05-03T19:27:40.514Z,6.17
2023-05-03T19:30:09.707Z,5.85
2023-05-03T19:32:39.487Z,5.77
2023-05-03T19:35:09.648Z,5.62
2023-05-03T19:37:38.836Z,5.48
2023-05-03T19:40:08.070Z,5.34
2023-05-03T19:42:36.413Z,5.28
2023-05-03T19:45:10.009Z,5.43
2023-05-03T19:47:38.946Z,5.46
2023-05-03T19:50:08.078Z,5.46
2023-05-03T19:52:36.652Z,5.34
2023-05-03T19:55:07.327Z,5.25
2023-05-03T19:57:35.641Z,5.30
2023-05-03T20:00:07.667Z,5.14
2023-05-03T20:02:37.494Z,5.06
2023-05-03T20:05:08.637Z,4.93
2023-05-03T20:07:37.715Z,4.97
2023-05-03T20:10:06.668Z,4.85
2023-05-03T20:12:35.100Z,4.75
2023-05-03T20:15:03.267Z,4.61
2023-05-03T20:17:33.053Z,4.60
2023-05-03T20:20:07.822Z,4.82
2023-05-03T20:22:36.250Z,4.70
2023-05-03T20:25:04.836Z,4.57
2023-05-03T20:27:33.217Z,4.48
2023-05-03T20:30:04.368Z,4.24
2023-05-03T20:32:36.469Z,4.18
2023-05-03T20:35:05.361Z,4.07
2023-05-03T20:37:33.516Z,4.24
2023-05-03T20:40:02.382Z,4.25
2023-05-03T20:42:30.800Z,4.46
2023-05-03T20:44:59.081Z,4.42
2023-05-03T20:47:27.913Z,4.32
2023-05-03T20:49:57.812Z,4.29
2023-05-03T20:52:26.017Z,4.28
2023-05-03T20:54:54.253Z,4.22
2023-05-03T20:57:22.434Z,4.24
2023-05-03T20:59:50.856Z,4.38
2023-05-03T21:02:19.372Z,4.35
2023-05-03T21:04:47.514Z,4.46
2023-05-03T21:07:17.862Z,4.39
2023-05-03T21:09:45.975Z,4.52
2023-05-03T21:12:14.249Z,4.42
2023-05-03T21:14:42.949Z,4.35
2023-05-03T21:21:18.419Z,3.94
2023-05-03T21:23:47.942Z,4.07
2023-05-03T21:26:16.827Z,3.77
2023-05-03T21:28:45.121Z,4.01
2023-05-03T21:31:14.666Z,4.14
2023-05-03T21:33:43.596Z,4.14
2023-05-03T21:36:12.588Z,4.25
2023-05-03T21:38:41.423Z,4.24
2023-05-03T21:41:11.351Z,4.25
2023-05-03T21:43:39.549Z,4.01
2023-05-03T21:46:08.621Z,3.85
2023-05-03T21:48:37.304Z,3.68
2023-05-03T21:51:05.551Z,3.84
2023-05-03T21:53:35.557Z,4.04
2023-05-03T21:56:04.719Z,3.91
2023-05-03T21:58:34.903Z,3.84
2023-05-03T22:01:03.674Z,3.88
2023-05-03T22:03:31.947Z,3.85
2023-05-03T22:06:00.496Z,3.98
2023-05-03T22:08:28.458Z,4.10
2023-05-03T22:10:57.500Z,4.05
2023-05-03T22:13:25.692Z,4.02
2023-05-03T22:15:55.522Z,3.72
2023-05-03T22:18:24.080Z,3.51
2023-05-03T22:20:52.701Z,3.32
2023-05-03T22:23:21.751Z,3.17
2023-05-03T22:25:50.159Z,3.33
2023-05-03T22:28:18.079Z,3.27
2023-05-03T22:30:47.053Z,3.14
2023-05-03T22:33:16.493Z,3.17
2023-05-03T22:35:45.179Z,3.15
2023-05-03T22:38:13.178Z,3.21
2023-05-03T22:40:41.708Z,3.28
2023-05-03T22:43:09.808Z,3.27
2023-05-03T22:45:38.999Z,3.31
2023-05-03T22:48:08.515Z,3.37
2023-05-03T22:50:38.075Z,3.13
2023-05-03T22:53:06.172Z,3.21
2023-05-03T22:55:34.718Z,3.19
2023-05-03T22:58:02.613Z,3.06
2023-05-03T23:00:31.513Z,3.08
2023-05-03T23:02:59.554Z,3.00
2023-05-03T23:05:27.883Z,2.92
2023-05-03T23:07:57.399Z,2.81
2023-05-03T23:10:25.424Z,2.83
2023-05-03T23:12:53.846Z,2.68
2023-05-03T23:15:22.300Z,2.67
2023-05-03T23:17:50.565Z,2.63
2023-05-03T23:20:18.739Z,2.55
2023-05-03T23:22:47.849Z,2.70
2023-05-03T23:25:17.953Z,2.45
2023-05-03T23:27:45.925Z,2.45
2023-05-03T23:30:15.461Z,2.26
2023-05-03T23:32:43.993Z,2.21
2023-05-03T23:35:13.249Z,2.26
2023-05-03T23:37:41.517Z,2.37
2023-05-03T23:40:10.979Z,2.45
2023-05-03T23:42:41.406Z,2.51
2023-05-03T23:45:10.786Z,2.31
2023-05-03T23:47:38.840Z,2.33
2023-05-03T23:50:08.634Z,2.17
2023-05-03T23:52:37.199Z,2.08
2023-05-03T23:55:05.843Z,2.27
2023-05-03T23:57:34.552Z,2.31
